Skip Navigation Links
NOAA logo - Click to go to the NOAA homepage
NOAA's National Weather Service
Alaska Aviation Weather Unit
  NWS logo - Click to go to the NWS homepage
Left Navbar Graphic     21 AKDT = 05 GMT

   
NOAA is celebrating 200 years of science, service, and stewardship. Visit the NOAA 200th celebration Web site to learn more.
USA.gov is the U.S. Government's official Web portal to all Federal, state and local government Web resources and services.
Facebook
NWS on Facebook

AAWU Home :: Display TAF Add Bookmark
METAR PAWN 262356Z AUTO 03008KT 10SM CLR 01/M10 A2971 RMK AO2 SLP074
     T00061100 10006 21050 55001 FZRANO=

METAR PAWN 270056Z AUTO 04009KT 10SM CLR 01/M10 A2970 RMK AO2 SLP073
     T00111100 FZRANO=

METAR PAWN 270256Z AUTO 02006KT 10SM CLR 01/M10 A2970 RMK AO2 SLP073
     T00111100 55001 FZRANO=

METAR PAWN 270356Z AUTO 02012G16KT 10SM CLR 01/M11 A2970 RMK AO2 SLP073
     T00061111 FZRANO=

METAR PAWN 270456Z AUTO 02011G14KT 10SM CLR 00/M11 A2971 RMK AO2
 SLP076 T00001111 FZRANO=


NOAA's National Weather Service
Alaska Aviation Weather Unit
6930 Sand Lake Road
Anchorage, AK 99502-1845
Disclaimer
Credits
Glossary
Privacy Policy
About Us
Career Opportunities
Contact AAWU Internet Services Site last modified: April, 17th 2012